sensor_id;sensor_type;location;lat;lon;timestamp;temperature;humidity
2453;DHT22;1238;47.994;7.854;2022-09-17T00:02:23;11.50;99.90
2453;DHT22;1238;47.994;7.854;2022-09-17T00:07:29;11.40;99.90
2453;DHT22;1238;47.994;7.854;2022-09-17T00:15:07;11.40;99.90
2453;DHT22;1238;47.994;7.854;2022-09-17T00:17:40;11.40;99.90
2453;DHT22;1238;47.994;7.854;2022-09-17T00:20:12;11.40;99.90
2453;DHT22;1238;47.994;7.854;2022-09-17T00:22:45;11.40;99.90
2453;DHT22;1238;47.994;7.854;2022-09-17T00:30:23;11.50;99.90
2453;DHT22;1238;47.994;7.854;2022-09-17T00:32:55;11.50;99.90
2453;DHT22;1238;47.994;7.854;2022-09-17T00:35:28;11.60;99.90
2453;DHT22;1238;47.994;7.854;2022-09-17T00:38:01;11.60;99.90
2453;DHT22;1238;47.994;7.854;2022-09-17T00:40:33;11.60;99.90
2453;DHT22;1238;47.994;7.854;2022-09-17T00:43:10;11.50;99.90
2453;DHT22;1238;47.994;7.854;2022-09-17T00:45:43;11.60;99.90
2453;DHT22;1238;47.994;7.854;2022-09-17T00:53:21;11.70;99.90
2453;DHT22;1238;47.994;7.854;2022-09-17T00:56:08;11.80;99.90
2453;DHT22;1238;47.994;7.854;2022-09-17T00:58:42;12.00;99.90
2453;DHT22;1238;47.994;7.854;2022-09-17T01:01:14;12.10;99.90
2453;DHT22;1238;47.994;7.854;2022-09-17T01:03:46;12.10;99.90
2453;DHT22;1238;47.994;7.854;2022-09-17T01:06:37;12.10;99.90
2453;DHT22;1238;47.994;7.854;2022-09-17T01:09:20;12.00;99.90
2453;DHT22;1238;47.994;7.854;2022-09-17T01:14:46;12.00;99.90
2453;DHT22;1238;47.994;7.854;2022-09-17T01:17:26;12.10;99.90
2453;DHT22;1238;47.994;7.854;2022-09-17T01:28:29;12.10;99.90
2453;DHT22;1238;47.994;7.854;2022-09-17T01:31:30;12.00;99.90
2453;DHT22;1238;47.994;7.854;2022-09-17T01:34:19;12.00;99.90
2453;DHT22;1238;47.994;7.854;2022-09-17T01:37:10;12.00;99.90
2453;DHT22;1238;47.994;7.854;2022-09-17T01:39:55;12.00;99.90
2453;DHT22;1238;47.994;7.854;2022-09-17T01:42:56;12.10;99.90
2453;DHT22;1238;47.994;7.854;2022-09-17T01:45:50;12.10;99.90
2453;DHT22;1238;47.994;7.854;2022-09-17T01:48:28;11.90;99.90
2453;DHT22;1238;47.994;7.854;2022-09-17T01:51:11;11.90;99.90
2453;DHT22;1238;47.994;7.854;2022-09-17T01:54:02;12.00;99.90
2453;DHT22;1238;47.994;7.854;2022-09-17T01:56:43;12.00;99.90
2453;DHT22;1238;47.994;7.854;2022-09-17T01:59:20;12.00;99.90
2453;DHT22;1238;47.994;7.854;2022-09-17T02:01:57;11.90;99.90
2453;DHT22;1238;47.994;7.854;2022-09-17T02:04:36;11.90;99.90
2453;DHT22;1238;47.994;7.854;2022-09-17T02:07:19;11.90;99.90
2453;DHT22;1238;47.994;7.854;2022-09-17T02:09:57;11.90;99.90
2453;DHT22;1238;47.994;7.854;2022-09-17T02:12:34;11.80;99.90
2453;DHT22;1238;47.994;7.854;2022-09-17T02:15:15;11.80;99.90
2453;DHT22;1238;47.994;7.854;2022-09-17T02:17:51;11.70;99.90
2453;DHT22;1238;47.994;7.854;2022-09-17T02:20:37;11.70;99.90
2453;DHT22;1238;47.994;7.854;2022-09-17T02:23:17;11.70;99.90
2453;DHT22;1238;47.994;7.854;2022-09-17T02:26:05;11.60;99.90
2453;DHT22;1238;47.994;7.854;2022-09-17T02:28:53;11.50;99.90
2453;DHT22;1238;47.994;7.854;2022-09-17T02:31:28;11.40;99.90
2453;DHT22;1238;47.994;7.854;2022-09-17T02:34:01;11.40;99.90
2453;DHT22;1238;47.994;7.854;2022-09-17T02:36:36;11.30;99.90
2453;DHT22;1238;47.994;7.854;2022-09-17T02:39:08;11.30;99.90
2453;DHT22;1238;47.994;7.854;2022-09-17T02:42:14;11.20;99.90
2453;DHT22;1238;47.994;7.854;2022-09-17T02:45:08;11.20;99.90
2453;DHT22;1238;47.994;7.854;2022-09-17T02:48:15;11.40;99.90
2453;DHT22;1238;47.994;7.854;2022-09-17T03:02:37;11.10;99.90
2453;DHT22;1238;47.994;7.854;2022-09-17T03:05:12;11.10;99.90
2453;DHT22;1238;47.994;7.854;2022-09-17T03:10:17;11.10;99.90
2453;DHT22;1238;47.994;7.854;2022-09-17T03:12:52;11.10;99.90
2453;DHT22;1238;47.994;7.854;2022-09-17T03:17:57;11.10;99.90
2453;DHT22;1238;47.994;7.854;2022-09-17T03:28:07;11.40;99.90
2453;DHT22;1238;47.994;7.854;2022-09-17T03:30:40;11.30;99.90
2453;DHT22;1238;47.994;7.854;2022-09-17T03:33:13;11.30;99.90
2453;DHT22;1238;47.994;7.854;2022-09-17T03:35:46;11.30;99.90
2453;DHT22;1238;47.994;7.854;2022-09-17T03:38:19;11.20;99.90
2453;DHT22;1238;47.994;7.854;2022-09-17T03:41:17;11.10;99.90
2453;DHT22;1238;47.994;7.854;2022-09-17T03:43:49;11.10;99.90
2453;DHT22;1238;47.994;7.854;2022-09-17T03:48:54;10.90;99.90
2453;DHT22;1238;47.994;7.854;2022-09-17T03:56:32;11.10;99.90
2453;DHT22;1238;47.994;7.854;2022-09-17T03:59:04;11.10;99.90
2453;DHT22;1238;47.994;7.854;2022-09-17T04:01:36;11.10;99.90
2453;DHT22;1238;47.994;7.854;2022-09-17T04:04:08;10.90;99.90
2453;DHT22;1238;47.994;7.854;2022-09-17T04:06:41;10.90;99.90
2453;DHT22;1238;47.994;7.854;2022-09-17T04:09:13;10.90;99.90
2453;DHT22;1238;47.994;7.854;2022-09-17T04:11:48;10.90;99.90
2453;DHT22;1238;47.994;7.854;2022-09-17T04:14:19;10.90;99.90
2453;DHT22;1238;47.994;7.854;2022-09-17T04:21:57;10.80;99.90
2453;DHT22;1238;47.994;7.854;2022-09-17T04:24:29;10.80;99.90
2453;DHT22;1238;47.994;7.854;2022-09-17T04:27:01;10.80;99.90
2453;DHT22;1238;47.994;7.854;2022-09-17T04:29:34;10.70;99.90
2453;DHT22;1238;47.994;7.854;2022-09-17T04:32:06;10.70;99.90
2453;DHT22;1238;47.994;7.854;2022-09-17T04:34:38;10.80;99.90
2453;DHT22;1238;47.994;7.854;2022-09-17T04:37:10;10.70;99.90
2453;DHT22;1238;47.994;7.854;2022-09-17T04:39:42;10.70;99.90
2453;DHT22;1238;47.994;7.854;2022-09-17T04:42:14;10.70;99.90
2453;DHT22;1238;47.994;7.854;2022-09-17T04:44:47;10.70;99.90
2453;DHT22;1238;47.994;7.854;2022-09-17T04:47:19;10.70;99.90
2453;DHT22;1238;47.994;7.854;2022-09-17T04:49:51;10.70;99.90
2453;DHT22;1238;47.994;7.854;2022-09-17T04:52:23;10.80;99.90
2453;DHT22;1238;47.994;7.854;2022-09-17T04:55:01;10.80;99.90
2453;DHT22;1238;47.994;7.854;2022-09-17T04:57:34;10.80;99.90
2453;DHT22;1238;47.994;7.854;2022-09-17T05:00:06;10.80;99.90
2453;DHT22;1238;47.994;7.854;2022-09-17T05:02:46;10.80;99.90
2453;DHT22;1238;47.994;7.854;2022-09-17T05:05:18;10.80;99.90
2453;DHT22;1238;47.994;7.854;2022-09-17T05:07:51;10.80;99.90
2453;DHT22;1238;47.994;7.854;2022-09-17T05:10:23;10.90;99.90
2453;DHT22;1238;47.994;7.854;2022-09-17T05:15:29;10.80;99.90
2453;DHT22;1238;47.994;7.854;2022-09-17T05:18:01;10.90;99.90
2453;DHT22;1238;47.994;7.854;2022-09-17T05:20:33;10.90;99.90
2453;DHT22;1238;47.994;7.854;2022-09-17T05:23:05;11.00;99.90
2453;DHT22;1238;47.994;7.854;2022-09-17T05:25:38;11.00;99.90
2453;DHT22;1238;47.994;7.854;2022-09-17T05:28:10;11.00;99.90
2453;DHT22;1238;47.994;7.854;2022-09-17T05:33:15;10.90;99.90
2453;DHT22;1238;47.994;7.854;2022-09-17T05:38:19;10.80;99.90
2453;DHT22;1238;47.994;7.854;2022-09-17T05:40:52;10.80;99.90
2453;DHT22;1238;47.994;7.854;2022-09-17T05:43:24;10.60;99.90
2453;DHT22;1238;47.994;7.854;2022-09-17T05:46:00;10.50;99.90
2453;DHT22;1238;47.994;7.854;2022-09-17T05:48:32;10.70;99.90
2453;DHT22;1238;47.994;7.854;2022-09-17T05:51:04;10.70;99.90
2453;DHT22;1238;47.994;7.854;2022-09-17T05:53:37;10.60;99.90
2453;DHT22;1238;47.994;7.854;2022-09-17T05:58:41;10.70;99.90
2453;DHT22;1238;47.994;7.854;2022-09-17T06:01:14;10.80;99.90
2453;DHT22;1238;47.994;7.854;2022-09-17T06:06:19;10.50;99.90
2453;DHT22;1238;47.994;7.854;2022-09-17T06:08:51;10.60;99.90
2453;DHT22;1238;47.994;7.854;2022-09-17T06:13:56;10.60;99.90
2453;DHT22;1238;47.994;7.854;2022-09-17T06:16:29;10.50;99.90
2453;DHT22;1238;47.994;7.854;2022-09-17T06:19:01;10.60;99.90
2453;DHT22;1238;47.994;7.854;2022-09-17T06:21:35;10.70;99.90
2453;DHT22;1238;47.994;7.854;2022-09-17T06:24:09;11.20;99.90
2453;DHT22;1238;47.994;7.854;2022-09-17T06:26:41;11.80;99.90
2453;DHT22;1238;47.994;7.854;2022-09-17T06:29:13;11.50;99.90
2453;DHT22;1238;47.994;7.854;2022-09-17T06:31:49;11.30;99.90
2453;DHT22;1238;47.994;7.854;2022-09-17T06:39:28;11.60;99.90
2453;DHT22;1238;47.994;7.854;2022-09-17T06:42:00;12.10;99.90
2453;DHT22;1238;47.994;7.854;2022-09-17T06:44:32;12.20;99.90
2453;DHT22;1238;47.994;7.854;2022-09-17T06:47:04;11.80;99.90
2453;DHT22;1238;47.994;7.854;2022-09-17T06:49:36;12.10;99.90
2453;DHT22;1238;47.994;7.854;2022-09-17T06:54:41;12.40;99.90
2453;DHT22;1238;47.994;7.854;2022-09-17T06:57:13;12.40;99.90
2453;DHT22;1238;47.994;7.854;2022-09-17T06:59:46;12.30;99.90
2453;DHT22;1238;47.994;7.854;2022-09-17T07:07:26;12.30;99.90
2453;DHT22;1238;47.994;7.854;2022-09-17T07:12:30;12.00;99.90
2453;DHT22;1238;47.994;7.854;2022-09-17T07:17:39;12.40;99.90
2453;DHT22;1238;47.994;7.854;2022-09-17T07:20:12;12.20;99.90
2453;DHT22;1238;47.994;7.854;2022-09-17T07:22:44;12.30;99.90
2453;DHT22;1238;47.994;7.854;2022-09-17T07:27:48;12.20;99.90
2453;DHT22;1238;47.994;7.854;2022-09-17T07:30:20;12.40;99.90
2453;DHT22;1238;47.994;7.854;2022-09-17T07:32:52;12.50;99.90
2453;DHT22;1238;47.994;7.854;2022-09-17T07:35:24;12.40;99.90
2453;DHT22;1238;47.994;7.854;2022-09-17T07:37:56;12.50;99.90
2453;DHT22;1238;47.994;7.854;2022-09-17T07:43:01;13.30;99.90
2453;DHT22;1238;47.994;7.854;2022-09-17T07:45:34;13.40;99.90
2453;DHT22;1238;47.994;7.854;2022-09-17T07:48:06;13.20;99.90
2453;DHT22;1238;47.994;7.854;2022-09-17T07:53:10;12.80;99.90
2453;DHT22;1238;47.994;7.854;2022-09-17T07:55:50;13.30;99.90
2453;DHT22;1238;47.994;7.854;2022-09-17T07:58:29;13.90;99.90
2453;DHT22;1238;47.994;7.854;2022-09-17T08:01:06;14.30;99.90
2453;DHT22;1238;47.994;7.854;2022-09-17T08:03:39;14.50;99.90
2453;DHT22;1238;47.994;7.854;2022-09-17T08:06:13;14.90;99.90
2453;DHT22;1238;47.994;7.854;2022-09-17T08:08:46;14.60;99.90
2453;DHT22;1238;47.994;7.854;2022-09-17T08:11:20;13.80;99.90
2453;DHT22;1238;47.994;7.854;2022-09-17T08:14:14;13.60;99.90
2453;DHT22;1238;47.994;7.854;2022-09-17T08:19:19;13.30;99.90
2453;DHT22;1238;47.994;7.854;2022-09-17T08:21:52;13.00;99.90
2453;DHT22;1238;47.994;7.854;2022-09-17T08:29:29;13.00;99.90
2453;DHT22;1238;47.994;7.854;2022-09-17T08:34:38;13.70;99.90
2453;DHT22;1238;47.994;7.854;2022-09-17T08:42:23;14.80;99.90
2453;DHT22;1238;47.994;7.854;2022-09-17T08:45:02;14.00;99.90
2453;DHT22;1238;47.994;7.854;2022-09-17T08:47:38;13.50;99.90
2453;DHT22;1238;47.994;7.854;2022-09-17T08:50:26;13.30;99.90
2453;DHT22;1238;47.994;7.854;2022-09-17T08:58:27;13.90;99.90
2453;DHT22;1238;47.994;7.854;2022-09-17T09:01:23;13.90;99.90
2453;DHT22;1238;47.994;7.854;2022-09-17T09:06:34;14.10;99.90
2453;DHT22;1238;47.994;7.854;2022-09-17T09:09:14;13.90;99.90
2453;DHT22;1238;47.994;7.854;2022-09-17T09:11:48;13.80;99.90
2453;DHT22;1238;47.994;7.854;2022-09-17T09:14:34;13.80;99.90
2453;DHT22;1238;47.994;7.854;2022-09-17T09:17:09;13.70;99.90
2453;DHT22;1238;47.994;7.854;2022-09-17T09:19:43;13.90;99.90
2453;DHT22;1238;47.994;7.854;2022-09-17T09:25:22;14.60;99.90
2453;DHT22;1238;47.994;7.854;2022-09-17T09:33:30;14.30;99.90
2453;DHT22;1238;47.994;7.854;2022-09-17T09:36:10;14.20;99.90
2453;DHT22;1238;47.994;7.854;2022-09-17T09:41:51;14.40;99.90
2453;DHT22;1238;47.994;7.854;2022-09-17T09:44:25;14.90;99.90
2453;DHT22;1238;47.994;7.854;2022-09-17T09:47:26;15.10;99.90
2453;DHT22;1238;47.994;7.854;2022-09-17T09:56:31;15.10;99.90
2453;DHT22;1238;47.994;7.854;2022-09-17T09:59:10;15.30;99.90
2453;DHT22;1238;47.994;7.854;2022-09-17T10:06:54;14.70;99.90
2453;DHT22;1238;47.994;7.854;2022-09-17T10:09:31;14.90;99.90
2453;DHT22;1238;47.994;7.854;2022-09-17T10:12:15;15.20;99.90
2453;DHT22;1238;47.994;7.854;2022-09-17T10:17:23;15.10;99.90
2453;DHT22;1238;47.994;7.854;2022-09-17T10:22:41;15.70;99.90
2453;DHT22;1238;47.994;7.854;2022-09-17T10:25:33;15.70;99.90
2453;DHT22;1238;47.994;7.854;2022-09-17T10:28:29;15.70;99.90
2453;DHT22;1238;47.994;7.854;2022-09-17T10:31:04;15.60;99.90
2453;DHT22;1238;47.994;7.854;2022-09-17T10:33:56;15.60;99.90
2453;DHT22;1238;47.994;7.854;2022-09-17T10:36:41;15.60;99.90
2453;DHT22;1238;47.994;7.854;2022-09-17T10:44:34;15.70;99.90
2453;DHT22;1238;47.994;7.854;2022-09-17T10:47:13;15.80;99.90
2453;DHT22;1238;47.994;7.854;2022-09-17T10:58:34;15.70;99.90
2453;DHT22;1238;47.994;7.854;2022-09-17T11:02:35;15.90;99.90
2453;DHT22;1238;47.994;7.854;2022-09-17T11:08:29;15.60;99.90
2453;DHT22;1238;47.994;7.854;2022-09-17T11:11:10;15.00;99.90
2453;DHT22;1238;47.994;7.854;2022-09-17T11:16:57;14.70;99.90
2453;DHT22;1238;47.994;7.854;2022-09-17T11:20:03;15.00;99.90
2453;DHT22;1238;47.994;7.854;2022-09-17T11:22:59;15.10;99.90
2453;DHT22;1238;47.994;7.854;2022-09-17T11:25:43;15.70;99.90
2453;DHT22;1238;47.994;7.854;2022-09-17T11:34:36;16.10;99.90
2453;DHT22;1238;47.994;7.854;2022-09-17T11:37:27;15.80;99.90
2453;DHT22;1238;47.994;7.854;2022-09-17T11:42:45;15.50;99.90
2453;DHT22;1238;47.994;7.854;2022-09-17T11:45:38;15.50;99.90
2453;DHT22;1238;47.994;7.854;2022-09-17T11:48:16;15.60;99.90
2453;DHT22;1238;47.994;7.854;2022-09-17T11:57:04;16.60;99.90
2453;DHT22;1238;47.994;7.854;2022-09-17T11:59:55;17.30;99.90
2453;DHT22;1238;47.994;7.854;2022-09-17T12:02:42;18.10;99.90
2453;DHT22;1238;47.994;7.854;2022-09-17T12:13:39;18.00;99.90
2453;DHT22;1238;47.994;7.854;2022-09-17T12:24:23;17.70;99.90
2453;DHT22;1238;47.994;7.854;2022-09-17T12:30:22;17.30;99.90
2453;DHT22;1238;47.994;7.854;2022-09-17T12:33:23;18.30;99.90
2453;DHT22;1238;47.994;7.854;2022-09-17T12:41:45;16.60;99.90
2453;DHT22;1238;47.994;7.854;2022-09-17T12:53:47;18.10;99.90
2453;DHT22;1238;47.994;7.854;2022-09-17T12:59:11;18.20;99.90
2453;DHT22;1238;47.994;7.854;2022-09-17T13:02:17;18.60;99.90
2453;DHT22;1238;47.994;7.854;2022-09-17T13:14:05;18.20;99.90
2453;DHT22;1238;47.994;7.854;2022-09-17T13:19:34;17.00;99.90
2453;DHT22;1238;47.994;7.854;2022-09-17T13:22:16;16.90;99.90
2453;DHT22;1238;47.994;7.854;2022-09-17T13:25:03;17.20;99.90
2453;DHT22;1238;47.994;7.854;2022-09-17T13:27:37;17.10;99.90
2453;DHT22;1238;47.994;7.854;2022-09-17T13:30:11;16.80;99.90
2453;DHT22;1238;47.994;7.854;2022-09-17T13:32:46;16.70;99.90
2453;DHT22;1238;47.994;7.854;2022-09-17T13:37:57;17.30;99.90
2453;DHT22;1238;47.994;7.854;2022-09-17T13:40:35;17.20;99.90
2453;DHT22;1238;47.994;7.854;2022-09-17T13:43:10;17.00;99.90
2453;DHT22;1238;47.994;7.854;2022-09-17T13:46:08;16.70;99.90
2453;DHT22;1238;47.994;7.854;2022-09-17T13:48:46;16.60;99.90
2453;DHT22;1238;47.994;7.854;2022-09-17T13:54:07;17.00;99.90
2453;DHT22;1238;47.994;7.854;2022-09-17T13:56:43;17.10;99.90
2453;DHT22;1238;47.994;7.854;2022-09-17T13:59:22;17.20;99.90
2453;DHT22;1238;47.994;7.854;2022-09-17T14:01:58;17.20;99.90
2453;DHT22;1238;47.994;7.854;2022-09-17T14:21:12;16.50;99.90
2453;DHT22;1238;47.994;7.854;2022-09-17T14:23:51;16.40;99.90
2453;DHT22;1238;47.994;7.854;2022-09-17T14:26:38;16.30;99.90
2453;DHT22;1238;47.994;7.854;2022-09-17T14:30:17;16.40;99.90
2453;DHT22;1238;47.994;7.854;2022-09-17T14:32:30;16.40;99.90
2453;DHT22;1238;47.994;7.854;2022-09-17T14:38:40;16.40;99.90
2453;DHT22;1238;47.994;7.854;2022-09-17T14:41:20;16.60;99.90
2453;DHT22;1238;47.994;7.854;2022-09-17T14:43:59;17.20;99.90
2453;DHT22;1238;47.994;7.854;2022-09-17T14:47:21;17.60;99.90
2453;DHT22;1238;47.994;7.854;2022-09-17T14:49:46;17.30;99.50
2453;DHT22;1238;47.994;7.854;2022-09-17T14:52:26;17.10;99.80
2453;DHT22;1238;47.994;7.854;2022-09-17T14:55:29;17.00;99.90
2453;DHT22;1238;47.994;7.854;2022-09-17T14:58:02;16.90;99.90
2453;DHT22;1238;47.994;7.854;2022-09-17T15:00:36;17.00;99.90
2453;DHT22;1238;47.994;7.854;2022-09-17T15:03:20;17.10;99.90
2453;DHT22;1238;47.994;7.854;2022-09-17T15:08:26;17.10;99.90
2453;DHT22;1238;47.994;7.854;2022-09-17T15:11:05;17.10;99.90
2453;DHT22;1238;47.994;7.854;2022-09-17T15:13:49;17.10;99.90
2453;DHT22;1238;47.994;7.854;2022-09-17T15:16:26;16.90;99.90
2453;DHT22;1238;47.994;7.854;2022-09-17T15:18:59;17.00;99.90
2453;DHT22;1238;47.994;7.854;2022-09-17T15:21:44;17.30;99.90
2453;DHT22;1238;47.994;7.854;2022-09-17T15:26:55;17.10;99.90
2453;DHT22;1238;47.994;7.854;2022-09-17T15:29:31;16.80;99.90
2453;DHT22;1238;47.994;7.854;2022-09-17T15:34:37;16.70;99.90
2453;DHT22;1238;47.994;7.854;2022-09-17T15:37:17;16.70;99.90
2453;DHT22;1238;47.994;7.854;2022-09-17T15:39:51;16.60;99.90
2453;DHT22;1238;47.994;7.854;2022-09-17T15:42:29;16.40;99.90
2453;DHT22;1238;47.994;7.854;2022-09-17T15:45:19;16.20;99.90
2453;DHT22;1238;47.994;7.854;2022-09-17T15:47:59;16.30;99.90
2453;DHT22;1238;47.994;7.854;2022-09-17T15:50:48;16.40;99.90
2453;DHT22;1238;47.994;7.854;2022-09-17T15:53:26;16.20;99.90
2453;DHT22;1238;47.994;7.854;2022-09-17T16:04:04;15.90;99.90
2453;DHT22;1238;47.994;7.854;2022-09-17T16:06:38;15.90;99.90
2453;DHT22;1238;47.994;7.854;2022-09-17T16:09:37;15.90;99.90
2453;DHT22;1238;47.994;7.854;2022-09-17T16:12:21;15.90;99.90
2453;DHT22;1238;47.994;7.854;2022-09-17T16:14:56;15.70;99.90
2453;DHT22;1238;47.994;7.854;2022-09-17T16:20:14;15.40;99.90
2453;DHT22;1238;47.994;7.854;2022-09-17T16:22:48;15.40;99.90
2453;DHT22;1238;47.994;7.854;2022-09-17T16:25:25;15.30;99.90
2453;DHT22;1238;47.994;7.854;2022-09-17T16:28:01;15.20;99.90
2453;DHT22;1238;47.994;7.854;2022-09-17T16:30:34;15.20;99.90
2453;DHT22;1238;47.994;7.854;2022-09-17T16:33:10;15.20;99.90
2453;DHT22;1238;47.994;7.854;2022-09-17T16:35:42;15.10;99.90
2453;DHT22;1238;47.994;7.854;2022-09-17T16:38:14;15.10;99.90
2453;DHT22;1238;47.994;7.854;2022-09-17T16:40:46;15.00;99.90
2453;DHT22;1238;47.994;7.854;2022-09-17T16:46:02;14.90;99.90
2453;DHT22;1238;47.994;7.854;2022-09-17T16:48:35;14.80;99.90
2453;DHT22;1238;47.994;7.854;2022-09-17T16:51:09;14.70;99.90
2453;DHT22;1238;47.994;7.854;2022-09-17T17:01:20;14.50;99.90
2453;DHT22;1238;47.994;7.854;2022-09-17T17:03:52;14.50;99.90
2453;DHT22;1238;47.994;7.854;2022-09-17T17:06:25;14.50;99.90
2453;DHT22;1238;47.994;7.854;2022-09-17T17:16:45;14.30;99.90
2453;DHT22;1238;47.994;7.854;2022-09-17T17:21:50;14.20;99.90
2453;DHT22;1238;47.994;7.854;2022-09-17T17:26:55;14.10;99.90
2453;DHT22;1238;47.994;7.854;2022-09-17T17:29:27;14.20;99.90
2453;DHT22;1238;47.994;7.854;2022-09-17T17:32:01;14.10;99.90
2453;DHT22;1238;47.994;7.854;2022-09-17T17:34:33;14.10;99.90
2453;DHT22;1238;47.994;7.854;2022-09-17T17:42:10;14.10;99.90
2453;DHT22;1238;47.994;7.854;2022-09-17T17:44:42;14.10;99.90
2453;DHT22;1238;47.994;7.854;2022-09-17T17:47:15;14.10;99.90
2453;DHT22;1238;47.994;7.854;2022-09-17T17:49:47;14.00;99.90
2453;DHT22;1238;47.994;7.854;2022-09-17T17:52:20;14.00;99.90
2453;DHT22;1238;47.994;7.854;2022-09-17T18:02:30;14.10;99.90
2453;DHT22;1238;47.994;7.854;2022-09-17T18:07:35;14.00;99.90
2453;DHT22;1238;47.994;7.854;2022-09-17T18:10:07;13.90;99.90
2453;DHT22;1238;47.994;7.854;2022-09-17T18:12:40;13.70;99.90
2453;DHT22;1238;47.994;7.854;2022-09-17T18:15:20;13.80;99.90
2453;DHT22;1238;47.994;7.854;2022-09-17T18:17:52;13.80;99.90
2453;DHT22;1238;47.994;7.854;2022-09-17T18:28:03;13.60;99.90
2453;DHT22;1238;47.994;7.854;2022-09-17T18:30:35;13.70;99.90
2453;DHT22;1238;47.994;7.854;2022-09-17T18:33:08;13.60;99.90
2453;DHT22;1238;47.994;7.854;2022-09-17T18:38:14;13.60;99.90
2453;DHT22;1238;47.994;7.854;2022-09-17T18:40:47;13.60;99.90
2453;DHT22;1238;47.994;7.854;2022-09-17T18:45:56;13.60;99.90
2453;DHT22;1238;47.994;7.854;2022-09-17T18:48:29;13.50;99.90
2453;DHT22;1238;47.994;7.854;2022-09-17T18:51:10;13.40;99.90
2453;DHT22;1238;47.994;7.854;2022-09-17T18:53:43;13.30;99.90
2453;DHT22;1238;47.994;7.854;2022-09-17T18:56:27;13.20;99.90
2453;DHT22;1238;47.994;7.854;2022-09-17T18:59:00;13.10;99.90
2453;DHT22;1238;47.994;7.854;2022-09-17T19:01:38;13.00;99.90
2453;DHT22;1238;47.994;7.854;2022-09-17T19:04:11;13.00;99.90
2453;DHT22;1238;47.994;7.854;2022-09-17T19:06:43;12.90;99.90
2453;DHT22;1238;47.994;7.854;2022-09-17T19:09:15;12.70;99.90
2453;DHT22;1238;47.994;7.854;2022-09-17T19:11:47;12.50;99.90
2453;DHT22;1238;47.994;7.854;2022-09-17T19:24:31;12.70;99.90
2453;DHT22;1238;47.994;7.854;2022-09-17T19:29:37;12.70;99.90
2453;DHT22;1238;47.994;7.854;2022-09-17T19:37:15;12.80;99.90
2453;DHT22;1238;47.994;7.854;2022-09-17T19:39:49;12.70;99.90
2453;DHT22;1238;47.994;7.854;2022-09-17T19:44:54;12.80;99.90
2453;DHT22;1238;47.994;7.854;2022-09-17T19:47:27;12.80;99.90
2453;DHT22;1238;47.994;7.854;2022-09-17T19:50:00;12.70;99.90
2453;DHT22;1238;47.994;7.854;2022-09-17T19:52:32;12.70;99.90
2453;DHT22;1238;47.994;7.854;2022-09-17T19:57:43;12.80;99.90
2453;DHT22;1238;47.994;7.854;2022-09-17T20:02:48;12.70;99.90
2453;DHT22;1238;47.994;7.854;2022-09-17T20:07:54;12.90;99.90
2453;DHT22;1238;47.994;7.854;2022-09-17T20:10:26;12.90;99.90
2453;DHT22;1238;47.994;7.854;2022-09-17T20:13:00;12.90;99.90
2453;DHT22;1238;47.994;7.854;2022-09-17T20:15:33;12.90;99.90
2453;DHT22;1238;47.994;7.854;2022-09-17T20:18:06;12.90;99.90
2453;DHT22;1238;47.994;7.854;2022-09-17T20:20:42;12.80;99.90
2453;DHT22;1238;47.994;7.854;2022-09-17T20:23:14;12.80;99.90
2453;DHT22;1238;47.994;7.854;2022-09-17T20:25:52;12.90;99.90
2453;DHT22;1238;47.994;7.854;2022-09-17T20:28:25;12.90;99.90
2453;DHT22;1238;47.994;7.854;2022-09-17T20:31:06;12.80;99.90
2453;DHT22;1238;47.994;7.854;2022-09-17T20:33:40;12.80;99.90
2453;DHT22;1238;47.994;7.854;2022-09-17T20:36:17;12.70;99.90
2453;DHT22;1238;47.994;7.854;2022-09-17T20:38:51;12.70;99.90
2453;DHT22;1238;47.994;7.854;2022-09-17T20:41:43;12.60;99.90
2453;DHT22;1238;47.994;7.854;2022-09-17T20:46:48;12.70;99.90
2453;DHT22;1238;47.994;7.854;2022-09-17T20:49:21;12.60;99.90
2453;DHT22;1238;47.994;7.854;2022-09-17T20:51:54;12.80;99.90
2453;DHT22;1238;47.994;7.854;2022-09-17T20:56:58;12.70;99.90
2453;DHT22;1238;47.994;7.854;2022-09-17T21:02:21;12.60;99.90
2453;DHT22;1238;47.994;7.854;2022-09-17T21:04:54;12.60;99.90
2453;DHT22;1238;47.994;7.854;2022-09-17T21:07:26;12.60;99.90
2453;DHT22;1238;47.994;7.854;2022-09-17T21:09:58;12.50;99.90
2453;DHT22;1238;47.994;7.854;2022-09-17T21:15:03;12.50;99.90
2453;DHT22;1238;47.994;7.854;2022-09-17T21:17:35;12.40;99.90
2453;DHT22;1238;47.994;7.854;2022-09-17T21:22:43;12.40;99.90
2453;DHT22;1238;47.994;7.854;2022-09-17T21:25:15;12.40;99.90
2453;DHT22;1238;47.994;7.854;2022-09-17T21:27:48;12.40;99.90
2453;DHT22;1238;47.994;7.854;2022-09-17T21:30:19;12.40;99.90
2453;DHT22;1238;47.994;7.854;2022-09-17T21:32:53;12.40;99.90
2453;DHT22;1238;47.994;7.854;2022-09-17T21:40:36;12.40;99.90
2453;DHT22;1238;47.994;7.854;2022-09-17T21:48:15;12.30;99.90
2453;DHT22;1238;47.994;7.854;2022-09-17T21:53:19;12.40;99.90
2453;DHT22;1238;47.994;7.854;2022-09-17T21:58:24;12.40;99.90
2453;DHT22;1238;47.994;7.854;2022-09-17T22:01:01;12.30;99.90
2453;DHT22;1238;47.994;7.854;2022-09-17T22:03:34;12.30;99.90
2453;DHT22;1238;47.994;7.854;2022-09-17T22:06:13;12.30;99.90
2453;DHT22;1238;47.994;7.854;2022-09-17T22:11:28;12.30;99.90
2453;DHT22;1238;47.994;7.854;2022-09-17T22:14:08;12.30;99.90
2453;DHT22;1238;47.994;7.854;2022-09-17T22:16:43;12.30;99.90
2453;DHT22;1238;47.994;7.854;2022-09-17T22:19:17;12.30;99.90
2453;DHT22;1238;47.994;7.854;2022-09-17T22:21:52;12.30;99.90
2453;DHT22;1238;47.994;7.854;2022-09-17T22:24:24;12.30;99.90
2453;DHT22;1238;47.994;7.854;2022-09-17T22:26:56;12.30;99.90
2453;DHT22;1238;47.994;7.854;2022-09-17T22:29:29;12.30;99.90
2453;DHT22;1238;47.994;7.854;2022-09-17T22:32:03;12.30;99.90
2453;DHT22;1238;47.994;7.854;2022-09-17T22:34:35;12.20;99.90
2453;DHT22;1238;47.994;7.854;2022-09-17T22:37:07;12.00;99.90
2453;DHT22;1238;47.994;7.854;2022-09-17T22:39:40;12.00;99.90
2453;DHT22;1238;47.994;7.854;2022-09-17T22:42:12;12.10;99.90
2453;DHT22;1238;47.994;7.854;2022-09-17T22:44:44;12.10;99.90
2453;DHT22;1238;47.994;7.854;2022-09-17T22:47:16;12.10;99.90
2453;DHT22;1238;47.994;7.854;2022-09-17T22:49:48;12.10;99.90
2453;DHT22;1238;47.994;7.854;2022-09-17T23:05:06;12.10;99.90
2453;DHT22;1238;47.994;7.854;2022-09-17T23:07:38;12.20;99.90
2453;DHT22;1238;47.994;7.854;2022-09-17T23:10:11;12.20;99.90
2453;DHT22;1238;47.994;7.854;2022-09-17T23:12:43;12.30;99.90
2453;DHT22;1238;47.994;7.854;2022-09-17T23:15:15;12.30;99.90
2453;DHT22;1238;47.994;7.854;2022-09-17T23:17:47;12.40;99.90
2453;DHT22;1238;47.994;7.854;2022-09-17T23:20:19;12.30;99.90
2453;DHT22;1238;47.994;7.854;2022-09-17T23:22:52;12.30;99.90
2453;DHT22;1238;47.994;7.854;2022-09-17T23:30:30;12.30;99.90
2453;DHT22;1238;47.994;7.854;2022-09-17T23:33:02;12.30;99.90
2453;DHT22;1238;47.994;7.854;2022-09-17T23:38:07;12.10;99.90
2453;DHT22;1238;47.994;7.854;2022-09-17T23:40:40;12.10;99.90
2453;DHT22;1238;47.994;7.854;2022-09-17T23:50:49;12.10;99.90
2453;DHT22;1238;47.994;7.854;2022-09-17T23:53:22;12.20;99.90
2453;DHT22;1238;47.994;7.854;2022-09-17T23:55:54;12.30;99.90
2453;DHT22;1238;47.994;7.854;2022-09-17T23:58:30;12.30;99.90
